Time;durP1;ratioP1;P1;durP2;ratioP2;P2;SDS_P1;SDS_P2;PMS_P1;PMS_P2;Temp;Humidity;BMP_temperature;BMP_pressure;BME280_temperature;BME280_humidity;BME280_pressure;Samples;Min_cycle;Max_cycle;Signal;HPM_P1;HPM_P2
2022/06/10 00:00:18;;;;;;;16.17;6.05;;;;;;;15.48;81.42;92684.06;5113107;28;20027;-36
2022/06/10 00:02:43;;;;;;;15.15;5.97;;;;;;;15.45;81.80;92680.41;5113118;28;20028;-36
2022/06/10 00:05:18;;;;;;;18.45;5.97;;;;;;;15.44;82.43;92689.34;5113012;28;20505;-36
2022/06/10 00:07:44;;;;;;;11.45;5.30;;;;;;;15.48;81.80;92690.34;5112775;28;20023;-35
2022/06/10 00:10:12;;;;;;;7.55;5.38;;;;;;;15.45;82.15;92688.03;5102787;28;20113;-35
2022/06/10 00:12:37;;;;;;;8.70;5.30;;;;;;;15.48;81.85;92690.34;5093634;28;20559;-35
2022/06/10 00:15:04;;;;;;;5.68;5.07;;;;;;;15.49;81.38;92685.50;5112634;28;20038;-36
2022/06/10 00:17:30;;;;;;;13.85;6.03;;;;;;;15.49;81.29;92677.16;5112746;28;20099;-35
2022/06/10 00:19:55;;;;;;;7.88;5.50;;;;;;;15.48;81.99;92679.22;5112802;28;20555;-35
2022/06/10 00:22:21;;;;;;;5.60;4.93;;;;;;;15.51;82.14;92682.84;5112351;28;20027;-35
2022/06/10 00:24:46;;;;;;;8.50;5.05;;;;;;;15.50;81.52;92670.25;5112672;28;20053;-35
2022/06/10 00:27:13;;;;;;;5.15;4.65;;;;;;;15.45;81.34;92668.53;5112695;28;20231;-36
2022/06/10 00:29:39;;;;;;;8.73;4.55;;;;;;;15.41;81.42;92674.56;5112613;28;20114;-36
2022/06/10 00:32:05;;;;;;;4.63;4.18;;;;;;;15.37;81.08;92670.78;5112551;28;20405;-36
2022/06/10 00:34:31;;;;;;;4.68;4.07;;;;;;;14.97;82.52;92646.66;5112165;28;20580;-35
2022/06/10 00:36:57;;;;;;;4.63;3.97;;;;;;;15.19;81.97;92665.53;5110918;28;20028;-36
2022/06/10 00:39:22;;;;;;;5.55;3.70;;;;;;;15.22;81.34;92674.72;5112400;28;20042;-35
2022/06/10 00:41:48;;;;;;;8.35;4.68;;;;;;;15.18;82.04;92677.25;5110908;28;20490;-36
2022/06/10 00:44:48;;;;;;;5.85;4.35;;;;;;;15.25;82.11;92679.06;5112354;28;20034;-35
2022/06/10 00:47:35;;;;;;;5.10;4.60;;;;;;;15.29;81.93;92667.50;5112281;27;20019;-35
2022/06/10 00:50:14;;;;;;;6.68;4.72;;;;;;;15.32;83.06;92672.59;5110747;28;20515;-35
2022/06/10 00:52:41;;;;;;;4.85;4.13;;;;;;;15.22;82.96;92666.38;5111000;28;20055;-36
2022/06/10 00:55:07;;;;;;;5.65;4.25;;;;;;;15.26;82.01;92665.91;5112067;28;20031;-36
2022/06/10 00:57:38;;;;;;;5.85;4.15;;;;;;;15.36;81.27;92667.28;5111752;28;20119;-35
2022/06/10 01:00:07;;;;;;;7.47;4.53;;;;;;;15.39;81.76;92665.34;5110843;28;20460;-36
2022/06/10 01:02:35;;;;;;;6.80;4.53;;;;;;;15.41;82.87;92659.91;5111597;28;20035;-36
2022/06/10 01:05:04;;;;;;;6.70;4.72;;;;;;;15.40;82.64;92664.75;5111916;28;20031;-36
2022/06/10 01:07:35;;;;;;;;;;;;;;;15.42;82.46;92653.03;5112006;28;20023;-36
2022/06/10 01:10:06;;;;;;;4.57;4.10;;;;;;;15.38;83.14;92664.63;5109665;28;19911;-35
2022/06/10 01:12:41;;;;;;;5.20;4.22;;;;;;;15.34;82.02;92661.59;5109935;28;20118;-35
2022/06/10 01:15:44;;;;;;;5.78;4.25;;;;;;;15.29;82.06;92659.16;5090169;28;20425;-36
2022/06/10 01:18:23;;;;;;;6.18;4.18;;;;;;;15.39;82.14;92665.34;5091288;28;20024;-35
2022/06/10 01:20:54;;;;;;;4.22;3.83;;;;;;;15.40;81.44;92664.03;5091322;28;20035;-36
2022/06/10 01:23:40;;;;;;;5.75;5.15;;;;;;;15.40;81.66;92664.03;5090746;28;20028;-36
2022/06/10 01:26:13;;;;;;;5.82;4.88;;;;;;;15.38;82.55;92658.31;5091148;28;20526;-35
2022/06/10 01:29:10;;;;;;;4.90;4.40;;;;;;;15.45;82.81;92654.63;5089634;28;20039;-36
2022/06/10 01:31:36;;;;;;;7.65;4.45;;;;;;;15.48;82.98;92650.66;5091063;28;20032;-36
2022/06/10 01:34:35;;;;;;;8.07;4.50;;;;;;;15.48;83.53;92659.00;5090770;28;20054;-36
2022/06/10 01:37:09;;;;;;;8.15;3.78;;;;;;;15.53;82.18;92667.00;5086024;28;20127;-36
2022/06/10 01:40:02;;;;;;;6.47;5.15;;;;;;;15.54;82.13;92664.94;5090987;28;20028;-35
2022/06/10 01:42:28;;;;;;;8.48;6.55;;;;;;;15.56;82.62;92662.28;5090532;28;20067;-36
2022/06/10 01:45:16;;;;;;;7.68;6.88;;;;;;;15.52;82.14;92667.59;5089429;28;20032;-36
2022/06/10 01:47:59;;;;;;;9.60;7.87;;;;;;;15.55;81.65;92666.41;5091205;28;20036;-36
2022/06/10 01:50:42;;;;;;;8.38;7.43;;;;;;;15.58;81.56;92665.19;5090514;28;20550;-35
2022/06/10 01:53:25;;;;;;;11.10;7.10;;;;;;;15.48;81.87;92673.66;5089237;28;20052;-35
2022/06/10 01:55:54;;;;;;;8.18;6.00;;;;;;;15.31;82.65;92670.41;5089558;28;20111;-36
2022/06/10 01:58:24;;;;;;;5.75;5.15;;;;;;;15.25;83.20;92670.00;5090337;28;20084;-36
2022/06/10 02:00:53;;;;;;;6.63;4.85;;;;;;;15.36;83.11;92674.88;5090360;28;20030;-36
2022/06/10 02:03:30;;;;;;;5.95;4.78;;;;;;;15.45;82.53;92672.06;5089068;28;20030;-36
2022/06/10 02:06:00;;;;;;;9.93;4.35;;;;;;;15.52;82.22;92664.81;5097012;28;20094;-36
2022/06/10 02:08:30;;;;;;;5.57;4.47;;;;;;;15.48;82.22;92665.31;5109446;28;20023;-36
2022/06/10 02:11:01;;;;;;;7.35;5.25;;;;;;;15.51;82.05;92671.72;5092836;28;20024;-35
2022/06/10 02:13:31;;;;;;;7.90;4.57;;;;;;;15.47;82.05;92660.31;5097993;28;20035;-36
2022/06/10 02:15:59;;;;;;;5.30;4.65;;;;;;;15.47;82.49;92674.97;5109448;28;20034;-36
2022/06/10 02:18:32;;;;;;;5.68;4.90;;;;;;;15.41;82.57;92674.56;5109411;28;20031;-35
2022/06/10 02:21:01;;;;;;;5.68;4.05;;;;;;;15.36;82.67;92672.09;5109404;28;20026;-36
2022/06/10 02:23:31;;;;;;;8.20;5.07;;;;;;;15.26;83.10;92668.69;5109176;28;20023;-36
2022/06/10 02:25:57;;;;;;;7.45;5.22;;;;;;;15.12;83.85;92663.66;5110551;28;20567;-35
2022/06/10 02:28:28;;;;;;;6.22;5.53;;;;;;;15.25;83.39;92661.66;5109290;28;20561;-36
2022/06/10 02:30:58;;;;;;;5.18;4.57;;;;;;;15.13;84.19;92658.84;5109278;28;20020;-36
2022/06/10 02:33:23;;;;;;;7.50;4.72;;;;;;;15.16;84.96;92675.06;5109523;28;20030;-36
2022/06/10 02:35:56;;;;;;;5.40;4.82;;;;;;;15.08;85.38;92688.44;5110319;28;20035;-36
2022/06/10 02:38:51;;;;;;;5.40;4.75;;;;;;;15.10;85.30;92685.78;5109229;28;20022;-36
2022/06/10 02:41:36;;;;;;;11.80;4.68;;;;;;;14.95;85.59;92691.75;5094843;28;20059;-35
2022/06/10 02:44:07;;;;;;;6.78;4.63;;;;;;;15.15;85.88;92686.78;5109088;28;20032;-35
2022/06/10 02:46:45;;;;;;;8.35;4.32;;;;;;;15.24;85.80;92683.19;5110358;28;20031;-35
2022/06/10 02:49:15;;;;;;;7.55;4.32;;;;;;;15.32;86.03;92685.75;5109068;28;20393;-35
2022/06/10 02:51:41;;;;;;;8.75;4.20;;;;;;;15.37;85.32;92684.69;5109339;28;20019;-36
2022/06/10 02:54:31;;;;;;;7.88;4.57;;;;;;;15.44;85.25;92683.78;5110500;28;20468;-36
2022/06/10 02:56:57;;;;;;;6.00;4.32;;;;;;;15.39;85.67;92680.00;5109850;28;20036;-36
2022/06/10 03:02:22;;;;;;;12.85;4.45;;;;;;;15.47;84.90;92682.56;5102605;28;20031;-36
2022/06/10 03:05:01;;;;;;;5.05;4.22;;;;;;;15.52;84.65;92682.25;5089477;28;20039;-37
2022/06/10 03:07:52;;;;;;;9.23;4.45;;;;;;;15.57;84.68;92692.28;5092650;28;20057;-36
2022/06/10 03:10:24;;;;;;;11.27;4.75;;;;;;;15.56;84.54;92687.34;5103782;28;20036;-36
2022/06/10 03:13:13;;;;;;;7.03;4.50;;;;;;;15.57;84.40;92697.16;5109791;28;20043;-36
2022/06/10 03:15:52;;;;;;;5.47;4.55;;;;;;;15.55;84.72;92694.25;5093426;28;20044;-36
2022/06/10 03:18:46;;;;;;;13.48;5.50;;;;;;;15.55;84.98;92697.03;5093613;28;20031;-36
2022/06/10 03:21:15;;;;;;;8.68;4.97;;;;;;;15.59;84.83;92700.06;5093260;28;20024;-36
2022/06/10 03:23:50;;;;;;;7.60;5.88;;;;;;;15.59;85.17;92705.63;5093095;28;20050;-36
2022/06/10 03:26:51;;;;;;;8.25;6.43;;;;;;;15.62;85.83;92704.41;5092300;28;20024;-36
2022/06/10 03:29:32;;;;;;;9.13;7.10;;;;;;;15.69;85.59;92704.22;5091722;28;20028;-35
2022/06/10 03:32:10;;;;;;;8.25;6.38;;;;;;;15.59;85.50;92714.69;5091877;28;20012;-36
2022/06/10 03:34:40;;;;;;;13.60;7.22;;;;;;;15.58;84.73;92704.16;5093045;28;20020;-36
2022/06/10 03:37:06;;;;;;;11.45;7.15;;;;;;;15.64;85.29;92707.31;5091784;28;20023;-36
2022/06/10 03:39:32;;;;;;;8.63;6.68;;;;;;;15.56;85.46;92701.25;5091748;28;20568;-36
2022/06/10 03:42:11;;;;;;;34.38;8.00;;;;;;;15.67;85.03;92717.25;5091546;28;20028;-36
2022/06/10 03:44:37;;;;;;;13.90;6.90;;;;;;;15.70;84.88;92722.34;5091629;28;20401;-36
2022/06/10 03:47:04;;;;;;;7.78;6.78;;;;;;;15.70;84.88;92716.06;5093019;28;20035;-36
2022/06/10 03:49:41;;;;;;;8.80;6.80;;;;;;;15.79;85.81;92723.59;5092626;28;20028;-36
2022/06/10 03:52:08;;;;;;;9.18;7.22;;;;;;;15.75;85.41;92721.28;5091815;28;20123;-37
2022/06/10 03:54:33;;;;;;;8.27;6.78;;;;;;;15.79;84.94;92715.97;5091411;28;20030;-36
2022/06/10 03:56:59;;;;;;;10.95;6.68;;;;;;;15.81;84.59;92721.66;5092550;28;20024;-36
2022/06/10 03:59:24;;;;;;;15.00;7.55;;;;;;;15.78;85.38;92717.31;5108528;28;20024;-36
2022/06/10 04:01:51;;;;;;;7.78;7.03;;;;;;;15.82;85.57;92719.59;5111836;28;20031;-36
2022/06/10 04:04:17;;;;;;;11.32;7.78;;;;;;;15.84;86.08;92722.50;5112683;28;20023;-36
2022/06/10 04:06:42;;;;;;;10.70;8.27;;;;;;;15.91;85.15;92724.34;5113043;28;20080;-35
2022/06/10 04:09:09;;;;;;;11.68;7.43;;;;;;;15.92;84.93;92720.97;5111599;28;20151;-36
2022/06/10 04:11:34;;;;;;;9.40;7.88;;;;;;;15.92;85.48;92725.81;5091097;28;20052;-36
2022/06/10 04:14:00;;;;;;;11.45;8.00;;;;;;;16.00;85.14;92725.59;5105409;28;20027;-36
2022/06/10 04:16:28;;;;;;;9.20;7.57;;;;;;;16.05;85.42;92727.31;5112622;28;20161;-36
2022/06/10 04:18:54;;;;;;;7.97;7.18;;;;;;;16.10;85.16;92732.50;5112953;28;20031;-36
2022/06/10 04:21:19;;;;;;;8.40;6.68;;;;;;;16.11;84.48;92728.41;5112448;28;20016;-36
2022/06/10 04:23:45;;;;;;;7.35;6.65;;;;;;;16.12;84.86;92734.69;5112363;28;20035;-35
2022/06/10 04:26:10;;;;;;;8.43;6.22;;;;;;;16.08;85.34;92729.59;5112382;28;20031;-35
2022/06/10 04:28:36;;;;;;;12.05;6.40;;;;;;;16.06;85.58;92729.47;5112355;28;20023;-35
2022/06/10 04:31:01;;;;;;;6.53;5.93;;;;;;;16.10;85.97;92726.22;5112575;28;20030;-35
2022/06/10 04:33:27;;;;;;;7.13;5.68;;;;;;;16.11;85.99;92724.88;5112292;28;20103;-36
2022/06/10 04:35:53;;;;;;;8.35;5.53;;;;;;;16.15;86.05;92723.09;5112172;28;20031;-36
2022/06/10 04:38:21;;;;;;;7.07;6.32;;;;;;;16.19;85.65;92720.53;5110879;28;20027;-35
2022/06/10 04:40:48;;;;;;;8.75;6.40;;;;;;;16.21;85.32;92729.03;5112427;28;20024;-36
2022/06/10 04:43:14;;;;;;;7.45;6.53;;;;;;;16.24;85.10;92735.44;5111972;28;20408;-36
2022/06/10 04:45:44;;;;;;;12.32;9.43;;;;;;;16.25;84.90;92734.09;5112282;28;20024;-36
2022/06/10 04:48:11;;;;;;;11.38;8.80;;;;;;;16.24;85.31;92741.03;5112206;28;20057;-35
2022/06/10 04:50:37;;;;;;;11.93;9.80;;;;;;;16.26;85.77;92741.88;5111882;28;20047;-36
2022/06/10 04:53:03;;;;;;;13.25;9.13;;;;;;;16.13;85.71;92709.03;5111870;28;20540;-35
2022/06/10 04:55:28;;;;;;;10.50;8.77;;;;;;;16.34;85.35;92739.59;5111735;27;20026;-36
2022/06/10 04:57:54;;;;;;;11.55;9.73;;;;;;;16.39;85.42;92738.50;5112122;28;20030;-35
2022/06/10 05:00:24;;;;;;;10.05;8.90;;;;;;;16.42;84.84;92740.06;5111633;28;20027;-36
2022/06/10 05:02:50;;;;;;;10.25;9.15;;;;;;;16.45;84.27;92744.44;5111857;28;20016;-36
2022/06/10 05:05:16;;;;;;;17.63;9.50;;;;;;;16.56;84.99;92743.75;5111935;28;20369;-36
2022/06/10 05:07:41;;;;;;;10.82;8.93;;;;;;;16.65;85.17;92742.19;5111546;28;20024;-36
2022/06/10 05:10:07;;;;;;;10.32;9.25;;;;;;;16.64;85.08;92741.44;5101922;28;20039;-35
2022/06/10 05:12:32;;;;;;;9.80;8.80;;;;;;;16.71;85.34;92745.31;5091895;28;20055;-36
2022/06/10 05:14:58;;;;;;;12.88;9.75;;;;;;;16.79;84.89;92745.81;5111841;28;20035;-35
2022/06/10 05:17:23;;;;;;;15.52;9.95;;;;;;;16.79;84.41;92748.59;5111375;28;20446;-36
2022/06/10 05:19:49;;;;;;;11.10;9.90;;;;;;;16.91;84.29;92748.59;5111317;28;20023;-35
2022/06/10 05:22:15;;;;;;;11.55;10.02;;;;;;;16.91;84.27;92754.91;5111562;28;20024;-35
2022/06/10 05:24:42;;;;;;;12.00;9.10;;;;;;;16.91;83.27;92748.59;5111562;28;20023;-35
2022/06/10 05:27:07;;;;;;;11.52;9.43;;;;;;;17.04;84.22;92753.56;5111031;28;20032;-35
2022/06/10 05:29:33;;;;;;;10.70;8.07;;;;;;;17.03;83.66;92761.19;5111297;28;20035;-36
2022/06/10 05:31:59;;;;;;;9.93;8.93;;;;;;;17.09;84.39;92752.44;5111095;28;20028;-35
2022/06/10 05:37:08;;;;;;;8.68;7.78;;;;;;;17.18;83.95;92757.16;5111109;28;20030;-36
2022/06/10 05:39:34;;;;;;;13.30;8.85;;;;;;;17.19;83.29;92755.84;5111332;28;20019;-36
2022/06/10 05:42:05;;;;;;;11.60;8.20;;;;;;;17.26;83.59;92761.16;5110881;28;20024;-36
2022/06/10 05:44:35;;;;;;;9.73;8.30;;;;;;;17.25;82.91;92761.78;5111234;28;20025;-36
2022/06/10 05:47:01;;;;;;;9.00;7.70;;;;;;;17.28;82.70;92764.06;5111149;28;20034;-36
2022/06/10 05:49:28;;;;;;;13.35;8.02;;;;;;;17.29;83.27;92762.00;5110849;28;20023;-36
2022/06/10 05:51:53;;;;;;;9.43;8.27;;;;;;;17.31;82.75;92762.13;5111181;28;20046;-36
2022/06/10 05:54:19;;;;;;;8.65;7.75;;;;;;;17.33;83.06;92767.81;5105792;28;20505;-36
2022/06/10 05:56:45;;;;;;;9.88;8.88;;;;;;;17.38;83.83;92777.88;5090526;28;20023;-36
2022/06/10 05:59:11;;;;;;;14.98;11.32;;;;;;;17.35;83.85;92771.44;5090399;28;20024;-35
2022/06/10 06:01:37;;;;;;;11.93;10.50;;;;;;;17.21;83.73;92756.69;5090592;28;20020;-36
2022/06/10 06:04:02;;;;;;;13.52;12.10;;;;;;;17.29;84.39;92773.91;5090698;28;20051;-36
2022/06/10 06:06:28;;;;;;;15.85;11.13;;;;;;;17.28;84.26;92766.13;5090586;28;20020;-35
2022/06/10 06:08:53;;;;;;;14.65;11.30;;;;;;;17.09;84.63;92769.19;5090297;28;20400;-36
2022/06/10 06:11:19;;;;;;;12.73;11.00;;;;;;;17.13;84.80;92777.81;5109704;28;20040;-36
2022/06/10 06:13:45;;;;;;;18.02;11.70;;;;;;;17.23;85.09;92781.19;5110547;28;20028;-36
2022/06/10 06:16:13;;;;;;;13.43;10.30;;;;;;;17.35;85.63;92781.88;5110903;28;20089;-36
2022/06/10 06:18:38;;;;;;;12.02;9.73;;;;;;;17.42;84.82;92783.69;5110559;28;20027;-36
2022/06/10 06:21:05;;;;;;;9.43;8.52;;;;;;;17.55;85.00;92785.88;5110851;28;20023;-36
2022/06/10 06:23:32;;;;;;;10.32;8.00;;;;;;;17.60;84.57;92790.38;5110645;28;20383;-36
2022/06/10 06:25:58;;;;;;;11.48;8.63;;;;;;;17.67;83.95;92791.44;5110798;28;20023;-36
2022/06/10 06:28:24;;;;;;;8.02;7.22;;;;;;;17.71;82.60;92795.19;5110803;28;20027;-36
2022/06/10 06:30:49;;;;;;;12.63;7.93;;;;;;;17.75;83.17;92795.41;5110409;28;20057;-35
2022/06/10 06:33:14;;;;;;;9.70;7.80;;;;;;;17.73;83.03;92795.31;5110452;28;20019;-36
2022/06/10 06:35:45;;;;;;;9.07;7.60;;;;;;;17.77;83.26;92792.75;5110657;28;20072;-36
2022/06/10 06:38:11;;;;;;;11.13;8.52;;;;;;;17.85;82.73;92784.06;5110419;28;20022;-36
2022/06/10 06:40:37;;;;;;;9.10;8.07;;;;;;;17.90;80.11;92791.34;5114429;28;20023;-36
2022/06/10 06:43:02;;;;;;;9.10;7.32;;;;;;;17.90;81.13;92780.19;5114344;28;20035;-35
2022/06/10 06:45:28;;;;;;;11.35;8.45;;;;;;;17.81;80.21;92759.47;5114412;28;20027;-35
2022/06/10 06:47:54;;;;;;;121.85;71.10;;;;;;;18.07;81.69;92780.47;5113120;28;20031;-35
2022/06/10 06:50:23;;;;;;;25.25;15.45;;;;;;;18.13;81.88;92772.44;5114502;28;20084;-35
2022/06/10 06:52:49;;;;;;;8.15;7.30;;;;;;;18.33;80.83;92772.09;5113361;28;20408;-36
2022/06/10 06:55:15;;;;;;;9.77;7.53;;;;;;;18.44;80.07;92776.88;5114551;28;20058;-35
2022/06/10 06:57:41;;;;;;;7.38;6.68;;;;;;;18.57;79.83;92779.75;5114122;27;20106;-35
2022/06/10 07:00:08;;;;;;;9.63;8.10;;;;;;;18.75;79.35;92774.41;5114380;27;20052;-36
2022/06/10 07:02:34;;;;;;;11.20;8.63;;;;;;;18.88;78.64;92774.41;5113864;28;20026;-36
2022/06/10 07:05:00;;;;;;;7.35;6.65;;;;;;;19.03;75.95;92773.09;5114320;28;20051;-36
2022/06/10 07:07:26;;;;;;;9.32;6.68;;;;;;;19.25;75.30;92781.91;5113951;28;20416;-36
2022/06/10 07:09:51;;;;;;;10.85;8.00;;;;;;;19.45;75.16;92780.16;5113897;28;20031;-36
2022/06/10 07:12:17;;;;;;;15.68;13.65;;;;;;;19.66;74.22;92780.53;5113751;28;20096;-36
2022/06/10 07:14:42;;;;;;;7.25;6.43;;;;;;;19.84;72.53;92775.13;5113700;28;20510;-36
2022/06/10 07:17:08;;;;;;;17.15;15.15;;;;;;;19.98;70.84;92780.69;5114103;27;20092;-36
2022/06/10 07:19:33;;;;;;;8.95;7.30;;;;;;;20.08;71.40;92784.72;5113664;28;20051;-36
2022/06/10 07:21:59;;;;;;;7.85;6.88;;;;;;;20.09;70.33;92786.16;5113709;28;20023;-37
2022/06/10 07:24:25;;;;;;;7.50;6.72;;;;;;;20.15;70.62;92785.72;5113623;28;20019;-36
2022/06/10 07:26:50;;;;;;;7.75;6.32;;;;;;;20.18;70.52;92790.78;5113538;27;20016;-36
2022/06/10 07:29:16;;;;;;;6.82;6.22;;;;;;;20.11;69.87;92789.06;5113544;28;20077;-36
2022/06/10 07:31:41;;;;;;;7.10;6.30;;;;;;;20.09;70.67;92797.38;5113520;28;20110;-36
2022/06/10 07:34:08;;;;;;;7.63;6.85;;;;;;;20.16;72.41;92792.78;5113847;28;20020;-36
2022/06/10 07:36:34;;;;;;;8.88;6.75;;;;;;;20.29;70.83;92784.34;5113345;28;20038;-36
2022/06/10 07:39:00;;;;;;;8.93;7.00;;;;;;;20.47;70.23;92786.56;5113652;27;20050;-36
2022/06/10 07:44:09;;;;;;;22.20;18.00;;;;;;;20.89;69.96;92792.06;5113553;28;20526;-37
2022/06/10 07:46:35;;;;;;;36.22;28.00;;;;;;;21.23;68.79;92786.56;5113541;28;20031;-38
2022/06/10 07:49:00;;;;;;;8.10;6.80;;;;;;;21.58;67.36;92800.72;5113127;27;20468;-37
2022/06/10 07:51:26;;;;;;;25.35;21.35;;;;;;;21.62;65.81;92800.91;5100433;28;20032;-36
2022/06/10 07:53:51;;;;;;;17.38;14.73;;;;;;;21.68;66.37;92790.66;5092673;28;20020;-37
2022/06/10 07:56:18;;;;;;;32.88;29.38;;;;;;;21.66;67.02;92799.00;5092905;28;20092;-36
2022/06/10 07:58:44;;;;;;;8.95;6.97;;;;;;;21.57;65.55;92796.50;5092629;28;20481;-37
2022/06/10 08:01:10;;;;;;;9.70;8.80;;;;;;;21.47;66.36;92796.03;5092534;28;20573;-36
2022/06/10 08:03:36;;;;;;;9.10;7.25;;;;;;;21.30;66.41;92800.22;5092500;28;20020;-37
2022/06/10 08:06:03;;;;;;;6.78;6.05;;;;;;;21.14;67.03;92813.53;5092719;28;20416;-36
2022/06/10 08:08:28;;;;;;;7.47;6.38;;;;;;;20.96;67.48;92807.78;5092663;28;20031;-36
2022/06/10 08:10:54;;;;;;;6.75;6.15;;;;;;;20.75;68.50;92808.25;5108353;28;20023;-36
2022/06/10 08:13:19;;;;;;;6.68;6.07;;;;;;;20.63;68.00;92812.56;5112354;28;20051;-37
2022/06/10 08:15:46;;;;;;;8.82;6.40;;;;;;;20.42;69.40;92812.97;5112974;28;20023;-36
2022/06/10 08:18:14;;;;;;;6.53;5.65;;;;;;;20.28;70.25;92819.34;5112835;28;20072;-37
2022/06/10 08:23:27;;;;;;;6.95;6.35;;;;;;;20.27;72.53;92781.44;5111320;28;20089;-36
2022/06/10 08:25:54;;;;;;;7.13;6.05;;;;;;;20.78;70.65;92809.78;5112417;28;20123;-35
2022/06/10 08:28:20;;;;;;;5.10;4.60;;;;;;;21.17;66.73;92817.16;5112344;28;20019;-36
2022/06/10 08:30:46;;;;;;;4.95;4.55;;;;;;;21.55;65.54;92819.59;5112705;28;20028;-36
2022/06/10 08:33:12;;;;;;;5.80;5.20;;;;;;;21.92;65.72;92821.88;5112568;28;20546;-37
2022/06/10 08:35:37;;;;;;;5.13;4.72;;;;;;;22.16;64.43;92805.31;5112518;28;20024;-37
2022/06/10 08:38:06;;;;;;;5.72;4.75;;;;;;;22.51;62.93;92825.03;5112168;28;20503;-37
2022/06/10 08:40:34;;;;;;;;;;;;;;;22.75;62.46;92825.28;5113020;28;20031;-37
2022/06/10 08:43:06;;;;;;;5.60;5.10;;;;;;;22.91;61.52;92826.66;5112070;28;19912;-37
2022/06/10 08:45:48;;;;;;;11.00;5.70;;;;;;;22.84;61.31;92818.59;5110957;28;20019;-37
2022/06/10 08:48:54;;;;;;;7.22;5.13;;;;;;;22.75;61.60;92833.72;5095180;28;20444;-37
2022/06/10 08:51:38;;;;;;;5.72;5.25;;;;;;;22.47;62.86;92825.59;5091059;28;20127;-37
2022/06/10 08:54:13;;;;;;;7.45;5.82;;;;;;;22.44;63.95;92831.75;5091451;28;20054;-37
2022/06/10 08:56:48;;;;;;;5.22;4.35;;;;;;;22.42;63.70;92831.69;5091828;28;20111;-37
2022/06/10 08:59:30;;;;;;;11.65;9.65;;;;;;;22.82;63.15;92830.53;5091410;28;20036;-37
2022/06/10 09:02:20;;;;;;;13.85;11.80;;;;;;;22.67;64.08;92817.25;5091084;28;20036;-37
2022/06/10 09:04:53;;;;;;;20.38;14.70;;;;;;;22.40;63.89;92823.91;5091720;28;20459;-37
2022/06/10 09:07:40;;;;;;;21.17;17.45;;;;;;;22.06;64.59;92830.94;5091304;28;20034;-37
2022/06/10 09:10:07;;;;;;;20.42;11.00;;;;;;;21.81;65.50;92843.19;5100607;28;20039;-37
2022/06/10 09:12:48;;;;;;;8.00;6.05;;;;;;;21.68;66.74;92840.50;5110910;28;20132;-37
2022/06/10 09:15:14;;;;;;;6.88;6.25;;;;;;;21.55;67.85;92839.25;5111415;28;20027;-37
2022/06/10 09:17:50;;;;;;;6.95;6.35;;;;;;;21.45;66.67;92833.19;5110291;28;20031;-37
2022/06/10 09:20:24;;;;;;;9.45;8.45;;;;;;;21.31;67.73;92837.47;5110515;28;20516;-37
2022/06/10 09:23:02;;;;;;;8.52;7.60;;;;;;;21.20;67.66;92838.38;5111338;28;20019;-37
2022/06/10 09:25:27;;;;;;;14.10;12.48;;;;;;;21.08;68.96;92833.66;5111259;28;20035;-37
2022/06/10 09:27:58;;;;;;;13.65;12.25;;;;;;;21.05;68.46;92834.91;5111585;28;20027;-37
2022/06/10 09:30:59;;;;;;;17.10;14.80;;;;;;;21.21;68.45;92837.72;5111156;28;20063;-38
2022/06/10 09:33:34;;;;;;;15.43;10.40;;;;;;;21.43;67.33;92838.00;5110268;28;20020;-37
2022/06/10 09:35:59;;;;;;;6.53;5.40;;;;;;;21.41;66.73;92841.44;5111401;28;20055;-37
2022/06/10 09:39:01;;;;;;;5.60;5.10;;;;;;;21.13;67.91;92829.69;5111340;27;20473;-37
2022/06/10 09:41:52;;;;;;;5.88;5.38;;;;;;;20.83;68.34;92831.06;5068015;28;20471;-37
2022/06/10 09:44:32;;;;;;;5.90;5.18;;;;;;;20.52;68.96;92838.69;5092688;28;20079;-37
2022/06/10 09:47:34;;;;;;;5.82;5.25;;;;;;;20.28;69.38;92844.59;5090771;28;20074;-38
2022/06/10 09:50:06;;;;;;;6.60;5.13;;;;;;;20.27;70.66;92839.63;5090627;28;20396;-37
2022/06/10 09:52:36;;;;;;;7.68;6.97;;;;;;;20.47;71.27;92828.63;5090551;28;20467;-37
2022/06/10 09:55:10;;;;;;;8.55;5.82;;;;;;;20.51;70.09;92828.84;5089402;28;20481;-37
2022/06/10 09:57:51;;;;;;;7.50;5.68;;;;;;;20.49;70.62;92825.94;5090816;28;20047;-37
2022/06/10 10:00:31;;;;;;;5.78;5.03;;;;;;;20.34;71.03;92830.13;5089574;28;20195;-37
2022/06/10 10:03:14;;;;;;;7.25;5.28;;;;;;;20.16;71.70;92837.63;5089506;28;20085;-37
2022/06/10 10:06:10;;;;;;;8.85;7.57;;;;;;;19.99;72.73;92838.91;5090739;28;20408;-37
2022/06/10 10:09:06;;;;;;;16.67;14.55;;;;;;;20.00;72.14;92834.75;5090307;28;20020;-37
2022/06/10 10:11:56;;;;;;;27.10;15.88;;;;;;;20.04;72.35;92831.44;5090161;28;20109;-37
2022/06/10 10:14:35;;;;;;;10.38;8.05;;;;;;;20.28;72.10;92838.97;5106158;28;20535;-37
2022/06/10 10:17:30;;;;;;;7.85;5.20;;;;;;;20.65;70.19;92840.72;5111032;28;20416;-38
2022/06/10 10:20:07;;;;;;;6.35;4.03;;;;;;;20.84;69.86;92834.59;5110940;28;20070;-37
2022/06/10 10:22:57;;;;;;;7.28;6.57;;;;;;;20.96;69.09;92833.06;5110561;28;20024;-37
2022/06/10 10:25:24;;;;;;;5.38;4.88;;;;;;;20.98;66.38;92827.56;5110453;28;20066;-37
2022/06/10 10:27:51;;;;;;;4.45;3.90;;;;;;;21.01;65.85;92839.59;5109630;28;20047;-38
2022/06/10 10:30:19;;;;;;;5.93;4.18;;;;;;;20.93;65.84;92828.00;5110464;28;20023;-38
2022/06/10 10:32:51;;;;;;;4.55;4.20;;;;;;;20.81;64.47;92835.88;5110431;28;20027;-37
2022/06/10 10:35:29;;;;;;;5.07;4.38;;;;;;;20.74;66.30;92839.75;5110835;28;20030;-37
2022/06/10 10:37:59;;;;;;;5.07;4.22;;;;;;;20.69;65.55;92832.47;5109279;28;20488;-37
2022/06/10 10:40:41;;;;;;;6.45;4.30;;;;;;;20.56;65.45;92834.00;5096331;28;20036;-38
2022/06/10 10:43:28;;;;;;;6.63;4.05;;;;;;;20.53;65.45;92832.44;5090236;28;20023;-37
2022/06/10 10:46:06;;;;;;;4.40;4.00;;;;;;;20.53;66.65;92834.53;5089115;28;20050;-37
2022/06/10 10:48:37;;;;;;;15.85;5.95;;;;;;;20.59;67.20;92841.16;5088784;28;20020;-37
2022/06/10 10:51:18;;;;;;;5.38;4.50;;;;;;;20.76;66.91;92834.94;5090202;28;20416;-37
2022/06/10 10:53:50;;;;;;;7.25;5.10;;;;;;;20.99;66.37;92843.03;5088795;28;20055;-37
2022/06/10 10:56:16;;;;;;;5.10;4.45;;;;;;;21.36;66.67;92836.28;5088969;28;20050;-38
2022/06/10 10:58:49;;;;;;;8.57;5.65;;;;;;;21.73;64.19;92834.44;5089887;28;20031;-37
2022/06/10 11:03:58;;;;;;;12.88;8.40;;;;;;;22.13;63.94;92827.00;5089897;28;20546;-38
2022/06/10 11:06:36;;;;;;;59.33;32.22;;;;;;;22.16;63.50;92828.53;5089974;28;20110;-37
2022/06/10 11:09:17;;;;;;;15.35;9.20;;;;;;;22.20;62.25;92825.88;5090161;28;20020;-38
2022/06/10 11:11:43;;;;;;;10.55;7.57;;;;;;;22.02;64.39;92821.59;5108587;28;20074;-37
2022/06/10 11:14:23;;;;;;;32.47;20.42;;;;;;;21.96;64.41;92818.53;5095222;28;20031;-37
2022/06/10 11:17:12;;;;;;;20.85;13.93;;;;;;;21.95;62.57;92812.19;5088549;28;20024;-38
2022/06/10 11:19:40;;;;;;;24.02;14.60;;;;;;;21.92;63.21;92809.94;5089998;28;20024;-38
2022/06/10 11:22:27;;;;;;;33.30;20.10;;;;;;;21.66;65.05;92798.25;5088380;28;20020;-38
2022/06/10 11:25:16;;;;;;;26.52;16.88;;;;;;;21.75;65.00;92806.41;5089925;28;20039;-38
2022/06/10 11:27:47;;;;;;;4.57;4.18;;;;;;;21.84;64.46;92824.38;5093144;28;20131;-38
2022/06/10 11:30:13;;;;;;;8.75;6.38;;;;;;;22.34;66.14;92812.41;5093089;28;20173;-37
2022/06/10 11:32:44;;;;;;;4.53;4.13;;;;;;;22.33;61.12;92813.03;5093440;28;20111;-38
2022/06/10 11:35:33;;;;;;;42.40;24.45;;;;;;;22.54;64.42;92801.25;5094357;28;20024;-38
2022/06/10 11:38:16;;;;;;;4.90;4.47;;;;;;;23.01;61.92;92796.06;5113767;28;20023;-38
2022/06/10 11:40:49;;;;;;;19.55;12.73;;;;;;;23.26;62.27;92789.22;5113385;28;20027;-38
2022/06/10 11:43:25;;;;;;;32.17;18.77;;;;;;;23.55;63.33;92796.63;5113171;28;20085;-38
2022/06/10 11:45:53;;;;;;;3.15;2.85;;;;;;;23.34;57.43;92798.00;5113645;27;20058;-38
2022/06/10 11:48:31;;;;;;;2.60;2.40;;;;;;;23.05;56.93;92803.94;5113264;28;20023;-38
2022/06/10 11:51:01;;;;;;;6.60;3.10;;;;;;;22.82;59.15;92808.00;5113576;28;20035;-39
2022/06/10 11:53:49;;;;;;;3.88;3.58;;;;;;;22.43;59.58;92794.50;5112290;28;20020;-38
2022/06/10 11:59:47;;;;;;;4.13;3.72;;;;;;;22.81;61.20;92789.66;5112363;28;20026;-38
2022/06/10 12:02:30;;;;;;;4.82;3.63;;;;;;;23.08;57.68;92780.84;5111800;28;20020;-39
2022/06/10 12:05:07;;;;;;;3.60;3.30;;;;;;;23.10;56.92;92768.94;5112997;28;20471;-38
2022/06/10 12:07:36;;;;;;;3.95;3.65;;;;;;;23.17;60.45;92784.69;5113135;28;20039;-38